Time;durP1;ratioP1;P1;durP2;ratioP2;P2;SDS_P1;SDS_P2;PMS_P1;PMS_P2;Temp;Humidity;BMP_temperature;BMP_pressure;BME280_temperature;BME280_humidity;BME280_pressure;Samples;Min_cycle;Max_cycle;Signal;HPM_P1;HPM_P2
2021/09/27 00:00:14;;;;;;;9.60;8.90;;;;;;;;;;5129646;27;24437;-60
2021/09/27 00:02:39;;;;;;;11.18;10.27;;;;;;;;;;5127417;27;25090;-59
2021/09/27 00:05:08;;;;;;;9.95;9.15;;;;;;;;;;5128387;27;24477;-59
2021/09/27 00:07:33;;;;;;;10.60;9.80;;;;;;;;;;5120924;27;24502;-59
2021/09/27 00:09:58;;;;;;;10.20;9.50;;;;;;;;;;5123722;27;24899;-60
2021/09/27 00:12:23;;;;;;;10.50;9.70;;;;;;;;;;5126275;27;24458;-60
2021/09/27 00:14:49;;;;;;;9.25;8.65;;;;;;;;;;5129652;27;24488;-60
2021/09/27 00:17:14;;;;;;;10.00;9.20;;;;;;;;;;5129226;27;24983;-60
2021/09/27 00:19:39;;;;;;;9.90;9.20;;;;;;;;;;5128180;27;24417;-60
2021/09/27 00:22:05;;;;;;;9.55;8.85;;;;;;;;;;5129230;27;24516;-60
2021/09/27 00:24:30;;;;;;;9.02;8.38;;;;;;;;;;5121784;27;24471;-60
2021/09/27 00:26:56;;;;;;;8.73;8.03;;;;;;;;;;5129150;27;24498;-60
2021/09/27 00:29:21;;;;;;;8.93;8.33;;;;;;;;;;5128491;27;24978;-60
2021/09/27 00:31:46;;;;;;;9.87;9.17;;;;;;;;;;5128165;27;24474;-60
2021/09/27 00:34:11;;;;;;;8.63;8.00;;;;;;;;;;5128483;27;24540;-60
2021/09/27 00:36:36;;;;;;;9.90;9.00;;;;;;;;;;5129589;27;25062;-60
2021/09/27 00:39:03;;;;;;;10.00;9.10;;;;;;;;;;5129337;27;25130;-61
2021/09/27 00:41:28;;;;;;;9.57;8.87;;;;;;;;;;5129014;27;24540;-61
2021/09/27 00:43:53;;;;;;;9.20;8.60;;;;;;;;;;5125991;27;25034;-58
2021/09/27 00:46:20;;;;;;;9.40;8.70;;;;;;;;;;5129027;27;24818;-59
2021/09/27 00:48:45;;;;;;;9.80;9.10;;;;;;;;;;5127661;27;24452;-59
2021/09/27 00:51:13;;;;;;;8.77;8.17;;;;;;;;;;5120241;27;24461;-59
2021/09/27 00:53:44;;;;;;;8.80;8.20;;;;;;;;;;5128010;27;24952;-59
2021/09/27 00:56:10;;;;;;;10.70;9.90;;;;;;;;;;5127796;27;24963;-59
2021/09/27 00:58:36;;;;;;;9.00;8.40;;;;;;;;;;5128182;27;24493;-60
2021/09/27 01:01:01;;;;;;;8.73;8.13;;;;;;;;;;5127596;27;24797;-60
2021/09/27 01:03:27;;;;;;;8.57;7.97;;;;;;;;;;5127741;27;24460;-59
2021/09/27 01:06:10;;;;;;;8.30;7.70;;;;;;;;;;5126982;27;25078;-59
2021/09/27 01:08:41;;;;;;;9.90;9.00;;;;;;;;;;5128235;27;24505;-60
2021/09/27 01:11:14;;;;;;;9.68;9.00;;;;;;;;;;5126478;27;24450;-60
2021/09/27 01:13:40;;;;;;;8.27;7.68;;;;;;;;;;5119522;27;24992;-60
2021/09/27 01:16:11;;;;;;;9.57;8.77;;;;;;;;;;5118798;27;24416;-60
2021/09/27 01:18:57;;;;;;;9.40;8.70;;;;;;;;;;5127962;27;24402;-59
2021/09/27 01:21:25;;;;;;;10.75;9.95;;;;;;;;;;5127695;27;24417;-60
2021/09/27 01:24:08;;;;;;;8.70;8.10;;;;;;;;;;5127563;27;24461;-59
2021/09/27 01:26:57;;;;;;;8.75;8.15;;;;;;;;;;5118716;27;24530;-59
2021/09/27 01:29:35;;;;;;;8.52;7.93;;;;;;;;;;5127171;27;24569;-60
2021/09/27 01:32:00;;;;;;;9.82;9.00;;;;;;;;;;5123813;27;24429;-60
2021/09/27 01:34:38;;;;;;;8.68;8.07;;;;;;;;;;5125578;27;24436;-60
2021/09/27 01:37:20;;;;;;;8.40;7.80;;;;;;;;;;5127210;27;24409;-60
2021/09/27 01:39:55;;;;;;;7.65;7.15;;;;;;;;;;5119953;27;24968;-60
2021/09/27 01:42:36;;;;;;;8.50;7.90;;;;;;;;;;5119356;27;24420;-60
2021/09/27 01:45:11;;;;;;;8.82;8.23;;;;;;;;;;5121784;27;24767;-60
2021/09/27 01:47:39;;;;;;;8.30;7.70;;;;;;;;;;5120734;27;24532;-60
2021/09/27 01:50:16;;;;;;;9.00;8.40;;;;;;;;;;5126667;27;24494;-60
2021/09/27 01:52:47;;;;;;;8.98;8.30;;;;;;;;;;5117404;27;24417;-60
2021/09/27 01:55:15;;;;;;;8.65;8.05;;;;;;;;;;5123377;27;24390;-60
2021/09/27 01:57:44;;;;;;;8.55;7.95;;;;;;;;;;5126679;27;24470;-60
2021/09/27 02:00:12;;;;;;;8.82;8.23;;;;;;;;;;5126424;27;24392;-60
2021/09/27 02:02:43;;;;;;;8.80;8.20;;;;;;;;;;5126524;27;24412;-60
2021/09/27 02:05:15;;;;;;;8.32;7.72;;;;;;;;;;5126669;27;24693;-60
2021/09/27 02:07:59;;;;;;;8.55;7.85;;;;;;;;;;5126667;27;24598;-60
2021/09/27 02:10:28;;;;;;;8.80;8.20;;;;;;;;;;5125198;27;25011;-60
2021/09/27 02:12:59;;;;;;;8.73;8.13;;;;;;;;;;5126804;27;24413;-60
2021/09/27 02:15:29;;;;;;;8.45;7.85;;;;;;;;;;5125184;27;24413;-59
2021/09/27 02:17:59;;;;;;;8.13;7.55;;;;;;;;;;5117748;27;24988;-60
2021/09/27 02:20:27;;;;;;;8.77;8.18;;;;;;;;;;5124245;27;24474;-59
2021/09/27 02:23:00;;;;;;;8.75;8.15;;;;;;;;;;5127239;27;24451;-60
2021/09/27 02:25:31;;;;;;;11.02;10.18;;;;;;;;;;5126179;27;24924;-60
2021/09/27 02:27:57;;;;;;;8.98;8.27;;;;;;;;;;5126824;27;24478;-60
2021/09/27 02:30:26;;;;;;;9.27;8.68;;;;;;;;;;5126667;27;24440;-60
2021/09/27 02:32:52;;;;;;;8.15;7.55;;;;;;;;;;5126597;27;24501;-60
2021/09/27 02:35:19;;;;;;;8.30;7.70;;;;;;;;;;5122716;27;24417;-59
2021/09/27 02:37:45;;;;;;;7.50;7.00;;;;;;;;;;5118862;28;24410;-59
2021/09/27 02:40:20;;;;;;;8.23;7.63;;;;;;;;;;5126079;27;24574;-59
2021/09/27 02:42:47;;;;;;;9.30;8.60;;;;;;;;;;5126668;28;24445;-59
2021/09/27 02:45:13;;;;;;;8.27;7.68;;;;;;;;;;5126289;28;24984;-59
2021/09/27 02:47:46;;;;;;;8.38;7.80;;;;;;;;;;5127373;28;24508;-59
2021/09/27 02:50:12;;;;;;;9.40;8.70;;;;;;;;;;5125785;27;25299;-59
2021/09/27 02:52:37;;;;;;;12.60;11.60;;;;;;;;;;5118560;28;24485;-60
2021/09/27 02:55:08;;;;;;;11.90;11.00;;;;;;;;;;5110673;27;24465;-61
2021/09/27 02:57:52;;;;;;;9.80;9.10;;;;;;;;;;5126748;28;24409;-59
2021/09/27 03:00:29;;;;;;;12.95;11.85;;;;;;;;;;5123210;28;24428;-60
2021/09/27 03:02:57;;;;;;;12.02;11.10;;;;;;;;;;5114033;28;24509;-59
2021/09/27 03:05:41;;;;;;;11.30;10.40;;;;;;;;;;5124241;28;24413;-58
2021/09/27 03:08:24;;;;;;;10.83;10.03;;;;;;;;;;5106547;28;24414;-59
2021/09/27 03:10:49;;;;;;;9.60;8.90;;;;;;;;;;5120886;27;24421;-59
2021/09/27 03:13:33;;;;;;;10.02;9.32;;;;;;;;;;5130124;27;24465;-58
2021/09/27 03:15:58;;;;;;;11.63;10.73;;;;;;;;;;5129421;27;24417;-59
2021/09/27 03:18:23;;;;;;;12.20;11.30;;;;;;;;;;5130277;27;24461;-58
2021/09/27 03:21:15;;;;;;;12.30;11.40;;;;;;;;;;5124738;27;24421;-58
2021/09/27 03:24:06;;;;;;;11.57;10.75;;;;;;;;;;5100259;27;24490;-58
2021/09/27 03:26:52;;;;;;;12.63;11.63;;;;;;;;;;5130443;27;24408;-58
2021/09/27 03:29:21;;;;;;;12.20;11.30;;;;;;;;;;5126077;27;24426;-58
2021/09/27 03:32:13;;;;;;;11.67;10.87;;;;;;;;;;5128621;27;24436;-58
2021/09/27 03:35:01;;;;;;;12.80;11.90;;;;;;;;;;5090223;27;24449;-59
2021/09/27 03:37:39;;;;;;;11.45;10.55;;;;;;;;;;5121433;27;24449;-58
2021/09/27 03:40:04;;;;;;;11.98;11.07;;;;;;;;;;5129547;27;24500;-59
2021/09/27 03:42:38;;;;;;;11.07;10.27;;;;;;;;;;5129125;27;24497;-60
2021/09/27 03:45:03;;;;;;;12.23;11.33;;;;;;;;;;5129428;27;24992;-60
2021/09/27 03:47:31;;;;;;;12.70;11.80;;;;;;;;;;5116139;27;24416;-60
2021/09/27 03:50:08;;;;;;;14.13;13.13;;;;;;;;;;5119729;27;24595;-60
2021/09/27 03:52:45;;;;;;;13.17;12.17;;;;;;;;;;5122293;27;24785;-60
2021/09/27 03:55:22;;;;;;;13.90;12.80;;;;;;;;;;5120211;27;24931;-60
2021/09/27 03:57:49;;;;;;;13.70;12.70;;;;;;;;;;5129538;27;24409;-60
2021/09/27 04:00:19;;;;;;;10.95;10.15;;;;;;;;;;5117290;27;24492;-60
2021/09/27 04:02:47;;;;;;;13.35;12.27;;;;;;;;;;5115991;27;24410;-61
2021/09/27 04:05:32;;;;;;;14.88;13.68;;;;;;;;;;5117982;27;24428;-60
2021/09/27 04:08:07;;;;;;;16.00;14.80;;;;;;;;;;5111355;27;24413;-60
2021/09/27 04:10:49;;;;;;;15.90;14.60;;;;;;;;;;5128269;27;24409;-61
2021/09/27 04:13:30;;;;;;;13.90;12.80;;;;;;;;;;5129052;27;24410;-61
2021/09/27 04:16:08;;;;;;;13.27;12.27;;;;;;;;;;5111863;27;24412;-61
2021/09/27 04:18:45;;;;;;;11.63;10.82;;;;;;;;;;5116709;27;24413;-61
2021/09/27 04:21:17;;;;;;;12.07;11.18;;;;;;;;;;5125540;27;24516;-61
2021/09/27 04:23:50;;;;;;;14.70;13.50;;;;;;;;;;5121957;27;24569;-62
2021/09/27 04:26:27;;;;;;;14.82;13.73;;;;;;;;;;5127461;27;24956;-62
2021/09/27 04:29:02;;;;;;;12.52;11.52;;;;;;;;;;5122501;27;24959;-61
2021/09/27 04:31:44;;;;;;;11.38;10.55;;;;;;;;;;5123900;27;24516;-61
2021/09/27 04:34:17;;;;;;;11.82;10.98;;;;;;;;;;5123966;27;24444;-62
2021/09/27 04:36:44;;;;;;;11.37;10.57;;;;;;;;;;5119646;27;24951;-61
2021/09/27 04:39:13;;;;;;;12.70;11.70;;;;;;;;;;5122876;27;24421;-61
2021/09/27 04:42:03;;;;;;;15.20;14.00;;;;;;;;;;5122326;27;24807;-61
2021/09/27 04:44:38;;;;;;;15.25;14.00;;;;;;;;;;5118206;27;24406;-61
2021/09/27 04:47:19;;;;;;;15.63;14.43;;;;;;;;;;5117594;27;24500;-61
2021/09/27 04:49:51;;;;;;;17.27;15.98;;;;;;;;;;5124518;27;24420;-61
2021/09/27 04:52:35;;;;;;;14.20;13.00;;;;;;;;;;5110970;27;24476;-62
2021/09/27 04:55:05;;;;;;;13.73;12.70;;;;;;;;;;5117511;27;24477;-62
2021/09/27 04:57:42;;;;;;;14.83;13.73;;;;;;;;;;5122553;27;24414;-61
2021/09/27 05:00:07;;;;;;;15.00;13.90;;;;;;;;;;5116565;27;24514;-61
2021/09/27 05:02:35;;;;;;;13.13;12.20;;;;;;;;;;5125965;27;24413;-62
2021/09/27 05:05:19;;;;;;;16.90;15.60;;;;;;;;;;5119872;27;24840;-61
2021/09/27 05:07:47;;;;;;;16.10;14.90;;;;;;;;;;5118016;27;24421;-61
2021/09/27 05:10:28;;;;;;;13.40;12.40;;;;;;;;;;5120300;27;25033;-61
2021/09/27 05:13:05;;;;;;;14.00;12.90;;;;;;;;;;5119345;27;24432;-61
2021/09/27 05:15:49;;;;;;;14.20;13.10;;;;;;;;;;5115644;27;24603;-62
2021/09/27 05:18:33;;;;;;;14.60;13.50;;;;;;;;;;5123457;27;24505;-62
2021/09/27 05:21:17;;;;;;;15.02;13.82;;;;;;;;;;5106610;27;25104;-61
2021/09/27 05:24:00;;;;;;;14.70;13.60;;;;;;;;;;5110468;27;24427;-61
2021/09/27 05:26:46;;;;;;;16.27;15.07;;;;;;;;;;5117395;27;24413;-61
2021/09/27 05:29:11;;;;;;;15.65;14.45;;;;;;;;;;5122049;27;24397;-62
2021/09/27 05:31:55;;;;;;;15.85;14.45;;;;;;;;;;5121032;27;24435;-61
2021/09/27 05:34:30;;;;;;;14.50;13.50;;;;;;;;;;5123763;27;24475;-60
2021/09/27 05:37:31;;;;;;;16.90;15.60;;;;;;;;;;5118403;27;24814;-61
2021/09/27 05:40:28;;;;;;;13.50;12.50;;;;;;;;;;5017964;28;24416;-61
2021/09/27 05:43:12;;;;;;;13.50;12.40;;;;;;;;;;5067004;27;24421;-61
2021/09/27 05:45:48;;;;;;;14.57;13.48;;;;;;;;;;5121960;27;24392;-61
2021/09/27 05:48:23;;;;;;;16.80;15.50;;;;;;;;;;5121851;27;24428;-62
2021/09/27 05:51:01;;;;;;;17.70;16.35;;;;;;;;;;5117998;27;25015;-61
2021/09/27 05:53:55;;;;;;;15.07;13.88;;;;;;;;;;5119924;27;25108;-61
2021/09/27 05:56:34;;;;;;;13.48;12.40;;;;;;;;;;5025636;27;24570;-62
2021/09/27 05:59:11;;;;;;;13.20;12.20;;;;;;;;;;5116035;27;24405;-61
2021/09/27 06:01:55;;;;;;;13.40;12.40;;;;;;;;;;5126104;27;24392;-60
2021/09/27 06:04:28;;;;;;;15.80;14.50;;;;;;;;;;5124163;27;24972;-61
2021/09/27 06:07:16;;;;;;;14.20;13.02;;;;;;;;;;5127715;27;24495;-61
2021/09/27 06:09:44;;;;;;;15.70;14.40;;;;;;;;;;5125748;27;24540;-61
2021/09/27 06:12:12;;;;;;;13.80;12.80;;;;;;;;;;5125054;27;24433;-61
2021/09/27 06:14:37;;;;;;;12.10;11.20;;;;;;;;;;5127751;27;24405;-60
2021/09/27 06:17:21;;;;;;;11.43;10.63;;;;;;;;;;5125752;27;24957;-61
2021/09/27 06:19:49;;;;;;;12.57;11.65;;;;;;;;;;5126457;27;25047;-60
2021/09/27 06:22:14;;;;;;;12.00;11.13;;;;;;;;;;5126313;27;24501;-60
2021/09/27 06:24:46;;;;;;;12.13;11.30;;;;;;;;;;5126483;27;24441;-60
2021/09/27 06:27:34;;;;;;;11.15;10.35;;;;;;;;;;5116722;27;25018;-61
2021/09/27 06:30:18;;;;;;;10.27;9.48;;;;;;;;;;5123039;27;24436;-60
2021/09/27 06:32:52;;;;;;;11.95;11.15;;;;;;;;;;5123471;27;24520;-61
2021/09/27 06:35:23;;;;;;;11.70;10.80;;;;;;;;;;5125027;27;24430;-60
2021/09/27 06:37:49;;;;;;;11.40;10.60;;;;;;;;;;5126278;27;24396;-60
2021/09/27 06:40:14;;;;;;;10.83;9.93;;;;;;;;;;5124931;27;24405;-61
2021/09/27 06:42:40;;;;;;;9.48;8.88;;;;;;;;;;5125377;28;24458;-60
2021/09/27 06:45:06;;;;;;;10.95;10.15;;;;;;;;;;5125914;28;24433;-61
2021/09/27 06:47:31;;;;;;;11.20;10.40;;;;;;;;;;5125466;27;24421;-60
2021/09/27 06:49:57;;;;;;;12.90;12.00;;;;;;;;;;5121870;28;24413;-60
2021/09/27 06:52:22;;;;;;;14.10;13.00;;;;;;;;;;5120100;28;24446;-60
2021/09/27 06:54:47;;;;;;;13.60;12.60;;;;;;;;;;5118023;28;24427;-61
2021/09/27 06:57:12;;;;;;;13.43;12.43;;;;;;;;;;5120668;28;24887;-60
2021/09/27 06:59:37;;;;;;;13.32;12.32;;;;;;;;;;5122838;28;24413;-60
2021/09/27 07:02:03;;;;;;;12.80;11.90;;;;;;;;;;5113811;28;25088;-60
2021/09/27 07:04:28;;;;;;;13.10;12.10;;;;;;;;;;5119561;28;24425;-61
2021/09/27 07:06:53;;;;;;;14.80;13.70;;;;;;;;;;5118082;28;26385;-60
2021/09/27 07:09:18;;;;;;;14.57;13.47;;;;;;;;;;5117450;28;24425;-60
2021/09/27 07:11:44;;;;;;;13.77;12.77;;;;;;;;;;5117745;28;24478;-60
2021/09/27 07:14:09;;;;;;;13.77;12.77;;;;;;;;;;5118236;28;24431;-60
2021/09/27 07:16:36;;;;;;;14.30;13.20;;;;;;;;;;5121073;28;24446;-61
2021/09/27 07:19:02;;;;;;;13.90;12.90;;;;;;;;;;5122822;28;24403;-60
2021/09/27 07:21:27;;;;;;;11.55;10.65;;;;;;;;;;5120931;28;24431;-60
2021/09/27 07:23:52;;;;;;;11.93;11.03;;;;;;;;;;5118307;28;24488;-60
2021/09/27 07:26:18;;;;;;;13.13;12.23;;;;;;;;;;5096897;28;24468;-60
2021/09/27 07:28:43;;;;;;;9.90;9.20;;;;;;;;;;5098741;28;24405;-60
2021/09/27 07:31:09;;;;;;;10.37;9.67;;;;;;;;;;5115967;28;24812;-60
2021/09/27 07:33:34;;;;;;;10.27;9.57;;;;;;;;;;5120437;28;24876;-60
2021/09/27 07:36:00;;;;;;;11.30;10.50;;;;;;;;;;5122871;28;24389;-60
2021/09/27 07:38:25;;;;;;;11.50;10.70;;;;;;;;;;5118554;28;24995;-61
2021/09/27 07:40:52;;;;;;;10.07;9.27;;;;;;;;;;5116537;28;24409;-60
2021/09/27 07:43:17;;;;;;;10.40;9.70;;;;;;;;;;5118543;28;24421;-60
2021/09/27 07:45:43;;;;;;;10.67;9.87;;;;;;;;;;5122813;28;24803;-60
2021/09/27 07:48:13;;;;;;;11.90;10.90;;;;;;;;;;5122515;28;24402;-60
2021/09/27 07:50:39;;;;;;;12.63;11.63;;;;;;;;;;5120614;28;24484;-62
2021/09/27 07:53:04;;;;;;;11.30;10.50;;;;;;;;;;5120226;28;24493;-60
2021/09/27 07:55:30;;;;;;;13.27;12.18;;;;;;;;;;5118685;28;24409;-60
2021/09/27 07:57:55;;;;;;;12.32;11.43;;;;;;;;;;5118712;27;24401;-60
2021/09/27 08:00:20;;;;;;;14.07;13.03;;;;;;;;;;5123787;27;24417;-60
2021/09/27 08:02:46;;;;;;;14.57;13.37;;;;;;;;;;5124140;27;24612;-60
2021/09/27 08:05:14;;;;;;;10.53;9.83;;;;;;;;;;5125956;27;24401;-60
2021/09/27 08:07:39;;;;;;;14.23;13.13;;;;;;;;;;5120360;27;24385;-61
2021/09/27 08:10:07;;;;;;;13.60;12.60;;;;;;;;;;5124259;27;24393;-61
2021/09/27 08:12:36;;;;;;;13.60;12.40;;;;;;;;;;5123267;27;24457;-59
2021/09/27 08:15:01;;;;;;;13.55;12.52;;;;;;;;;;5125867;27;24398;-60
2021/09/27 08:17:26;;;;;;;14.97;13.67;;;;;;;;;;5124150;27;24416;-61
2021/09/27 08:19:51;;;;;;;14.07;12.98;;;;;;;;;;5120125;27;24894;-61
2021/09/27 08:22:17;;;;;;;12.17;11.27;;;;;;;;;;5119687;27;24907;-58
2021/09/27 08:24:42;;;;;;;10.90;10.10;;;;;;;;;;5125578;27;24497;-61
2021/09/27 08:27:07;;;;;;;14.37;13.27;;;;;;;;;;5125712;27;24413;-61
2021/09/27 08:29:33;;;;;;;13.20;12.20;;;;;;;;;;5123843;27;24416;-60
2021/09/27 08:31:58;;;;;;;13.20;12.20;;;;;;;;;;5125307;27;24407;-58
2021/09/27 08:34:24;;;;;;;11.80;10.90;;;;;;;;;;5121586;27;24505;-59
2021/09/27 08:36:51;;;;;;;14.20;13.00;;;;;;;;;;5119656;27;24408;-59
2021/09/27 08:39:16;;;;;;;12.98;12.07;;;;;;;;;;5121815;27;24749;-59
2021/09/27 08:41:53;;;;;;;12.17;11.17;;;;;;;;;;5125266;27;24932;-60
2021/09/27 08:44:37;;;;;;;11.88;10.98;;;;;;;;;;5125228;27;24449;-60
2021/09/27 08:47:12;;;;;;;10.70;9.90;;;;;;;;;;5125365;27;24405;-62
2021/09/27 08:49:40;;;;;;;10.48;9.65;;;;;;;;;;5119568;27;24834;-61
2021/09/27 08:52:07;;;;;;;12.60;11.70;;;;;;;;;;5119388;27;24438;-61
2021/09/27 08:54:33;;;;;;;12.77;11.77;;;;;;;;;;5122967;27;24397;-60
2021/09/27 08:57:09;;;;;;;9.32;8.68;;;;;;;;;;5124795;27;24405;-60
2021/09/27 09:00:06;;;;;;;9.38;8.70;;;;;;;;;;5123215;27;24385;-60
2021/09/27 09:02:42;;;;;;;10.60;9.80;;;;;;;;;;5122607;27;24405;-59
2021/09/27 09:05:21;;;;;;;11.00;10.20;;;;;;;;;;5119061;27;24483;-60
2021/09/27 09:07:50;;;;;;;9.40;8.70;;;;;;;;;;5119426;27;24453;-59
2021/09/27 09:10:30;;;;;;;11.32;10.48;;;;;;;;;;5123911;27;24415;-60
2021/09/27 09:12:57;;;;;;;11.15;10.30;;;;;;;;;;5124566;27;24845;-60
2021/09/27 09:15:28;;;;;;;10.63;9.88;;;;;;;;;;5124365;27;24961;-60
2021/09/27 09:17:56;;;;;;;10.15;9.35;;;;;;;;;;5120583;27;24404;-60
2021/09/27 09:20:21;;;;;;;10.48;9.68;;;;;;;;;;5120666;27;24416;-60
2021/09/27 09:22:47;;;;;;;10.65;9.85;;;;;;;;;;5120369;27;24737;-60
2021/09/27 09:25:17;;;;;;;11.20;10.40;;;;;;;;;;5124465;27;24421;-60
2021/09/27 09:27:43;;;;;;;9.82;9.13;;;;;;;;;;5122597;27;24400;-59
2021/09/27 09:30:09;;;;;;;9.00;8.30;;;;;;;;;;5120418;27;24377;-59
2021/09/27 09:32:34;;;;;;;9.68;8.98;;;;;;;;;;5118000;27;24424;-59
2021/09/27 09:35:13;;;;;;;9.40;8.70;;;;;;;;;;5120546;27;24974;-59
2021/09/27 09:37:40;;;;;;;9.85;9.15;;;;;;;;;;5120454;27;24389;-59
2021/09/27 09:40:14;;;;;;;8.38;7.75;;;;;;;;;;5124144;27;24393;-59
2021/09/27 09:42:39;;;;;;;9.70;9.00;;;;;;;;;;5121925;27;24453;-59
2021/09/27 09:45:13;;;;;;;7.30;6.80;;;;;;;;;;5123741;27;24413;-60
2021/09/27 09:47:38;;;;;;;7.90;7.30;;;;;;;;;;5117832;27;24500;-60
2021/09/27 09:50:14;;;;;;;8.20;7.60;;;;;;;;;;5118288;27;24497;-61
2021/09/27 09:52:44;;;;;;;7.68;7.07;;;;;;;;;;5118275;27;24442;-59
2021/09/27 09:55:15;;;;;;;7.95;7.35;;;;;;;;;;5123205;27;24420;-59
2021/09/27 09:57:42;;;;;;;6.95;6.45;;;;;;;;;;5122073;27;24488;-59
2021/09/27 10:00:10;;;;;;;7.70;7.10;;;;;;;;;;5121365;27;24421;-59
2021/09/27 10:02:37;;;;;;;6.63;6.13;;;;;;;;;;5118379;27;24991;-60
2021/09/27 10:05:08;;;;;;;7.63;6.93;;;;;;;;;;5103095;27;24413;-61
2021/09/27 10:07:54;;;;;;;7.38;6.68;;;;;;;;;;5124057;27;24401;-58
2021/09/27 10:10:37;;;;;;;6.72;6.22;;;;;;;;;;5123841;27;24457;-60
2021/09/27 10:13:03;;;;;;;5.60;5.20;;;;;;;;;;5123284;27;24424;-60
2021/09/27 10:15:28;;;;;;;6.10;5.60;;;;;;;;;;5119769;27;24500;-61
2021/09/27 10:18:00;;;;;;;6.00;5.60;;;;;;;;;;5119849;27;24481;-59
2021/09/27 10:20:32;;;;;;;5.60;5.20;;;;;;;;;;5119532;27;24946;-59
2021/09/27 10:22:59;;;;;;;6.20;5.70;;;;;;;;;;5121381;27;24461;-59
2021/09/27 10:25:27;;;;;;;5.05;4.75;;;;;;;;;;5123261;27;24373;-60
2021/09/27 10:27:52;;;;;;;6.03;5.45;;;;;;;;;;5122500;27;24444;-59
2021/09/27 10:30:20;;;;;;;6.23;5.80;;;;;;;;;;5123422;27;24888;-59
2021/09/27 10:32:53;;;;;;;6.35;5.85;;;;;;;;;;5119085;27;24968;-60
2021/09/27 10:35:31;;;;;;;5.50;5.10;;;;;;;;;;5119781;27;24401;-58
2021/09/27 10:38:01;;;;;;;6.10;5.60;;;;;;;;;;5120793;27;25097;-59
2021/09/27 10:40:27;;;;;;;5.28;4.88;;;;;;;;;;5122146;27;24458;-60
2021/09/27 10:42:52;;;;;;;4.63;4.33;;;;;;;;;;5123355;27;24388;-60
2021/09/27 10:45:19;;;;;;;4.60;4.30;;;;;;;;;;5123452;28;24480;-60
2021/09/27 10:47:49;;;;;;;5.18;4.80;;;;;;;;;;5117869;28;24429;-59
2021/09/27 10:50:19;;;;;;;5.00;4.60;;;;;;;;;;5117260;28;24468;-58
2021/09/27 10:52:51;;;;;;;5.07;4.77;;;;;;;;;;5119386;28;24857;-59
2021/09/27 10:55:44;;;;;;;5.50;5.10;;;;;;;;;;5123323;28;24398;-60
2021/09/27 10:58:11;;;;;;;5.20;4.80;;;;;;;;;;5123128;28;24583;-60
2021/09/27 11:00:48;;;;;;;4.70;4.40;;;;;;;;;;5118740;28;25090;-60
2021/09/27 11:03:13;;;;;;;5.10;4.70;;;;;;;;;;5117333;28;24424;-60
2021/09/27 11:05:48;;;;;;;5.20;4.80;;;;;;;;;;5119520;28;24420;-60
2021/09/27 11:08:14;;;;;;;4.90;4.50;;;;;;;;;;5118980;28;24424;-60
2021/09/27 11:10:39;;;;;;;4.80;4.50;;;;;;;;;;5123070;28;24390;-58
2021/09/27 11:13:05;;;;;;;4.40;4.10;;;;;;;;;;5122551;28;24473;-57
2021/09/27 11:15:53;;;;;;;5.22;4.82;;;;;;;;;;5119156;28;24957;-58
2021/09/27 11:18:26;;;;;;;4.88;4.57;;;;;;;;;;5107384;28;25057;-58
2021/09/27 11:21:00;;;;;;;4.60;4.30;;;;;;;;;;5120314;28;24393;-57
2021/09/27 11:23:33;;;;;;;4.70;4.40;;;;;;;;;;5122876;28;24553;-59
2021/09/27 11:26:05;;;;;;;4.57;4.28;;;;;;;;;;5122862;28;24393;-59
2021/09/27 11:28:41;;;;;;;5.00;4.60;;;;;;;;;;5120504;28;24484;-59
2021/09/27 11:31:18;;;;;;;4.50;4.20;;;;;;;;;;5111962;28;24512;-58
2021/09/27 11:33:45;;;;;;;5.32;4.93;;;;;;;;;;5119712;27;24949;-60
2021/09/27 11:36:13;;;;;;;4.95;4.65;;;;;;;;;;5122442;27;24443;-60
2021/09/27 11:38:42;;;;;;;4.72;4.43;;;;;;;;;;5124929;27;24408;-60
2021/09/27 11:41:07;;;;;;;5.30;4.90;;;;;;;;;;5126567;27;24785;-59
2021/09/27 11:43:35;;;;;;;4.60;4.30;;;;;;;;;;5124763;27;24628;-60
2021/09/27 11:46:03;;;;;;;5.00;4.60;;;;;;;;;;5126344;27;24897;-60
2021/09/27 11:48:28;;;;;;;4.18;3.88;;;;;;;;;;5122979;27;24417;-59
2021/09/27 11:50:53;;;;;;;3.80;3.60;;;;;;;;;;5121376;27;24424;-59
2021/09/27 11:53:37;;;;;;;5.00;4.70;;;;;;;;;;5128298;27;24389;-59
2021/09/27 11:56:08;;;;;;;5.30;4.90;;;;;;;;;;5125147;27;24417;-61
2021/09/27 11:58:52;;;;;;;4.50;4.20;;;;;;;;;;5125775;27;24428;-60
2021/09/27 12:01:23;;;;;;;4.03;3.83;;;;;;;;;;5119846;27;24840;-59
2021/09/27 12:03:59;;;;;;;5.45;5.05;;;;;;;;;;5119551;27;24495;-58
2021/09/27 12:06:40;;;;;;;4.90;4.60;;;;;;;;;;5111112;27;24447;-59
2021/09/27 12:09:07;;;;;;;4.57;4.28;;;;;;;;;;5122554;27;24424;-59
2021/09/27 12:11:44;;;;;;;4.82;4.53;;;;;;;;;;5125536;27;24463;-59
2021/09/27 12:14:16;;;;;;;6.00;5.60;;;;;;;;;;5126308;27;24470;-59
2021/09/27 12:16:44;;;;;;;4.93;4.53;;;;;;;;;;5125825;27;24416;-58
2021/09/27 12:19:14;;;;;;;4.45;4.15;;;;;;;;;;5125623;27;24417;-58
2021/09/27 12:21:41;;;;;;;4.30;4.00;;;;;;;;;;5126373;27;24520;-59
2021/09/27 12:24:11;;;;;;;4.28;3.97;;;;;;;;;;5124896;27;24425;-59
2021/09/27 12:26:41;;;;;;;4.40;4.10;;;;;;;;;;5126228;27;24413;-59
2021/09/27 12:29:14;;;;;;;4.28;4.00;;;;;;;;;;5124953;27;24445;-59
2021/09/27 12:31:44;;;;;;;5.20;4.80;;;;;;;;;;5125641;27;24509;-59
2021/09/27 12:34:11;;;;;;;4.53;4.22;;;;;;;;;;5125143;27;24532;-60
2021/09/27 12:36:36;;;;;;;4.60;4.30;;;;;;;;;;5125525;27;24401;-59
2021/09/27 12:39:03;;;;;;;4.93;4.63;;;;;;;;;;5106474;27;24421;-59
2021/09/27 12:41:29;;;;;;;4.55;4.25;;;;;;;;;;5125824;27;24454;-59
2021/09/27 12:44:03;;;;;;;4.50;4.20;;;;;;;;;;5124790;27;24497;-59
2021/09/27 12:46:29;;;;;;;4.80;4.50;;;;;;;;;;5106923;27;24417;-59
2021/09/27 12:48:59;;;;;;;4.90;4.50;;;;;;;;;;5118650;27;24413;-59
2021/09/27 12:51:27;;;;;;;5.30;5.00;;;;;;;;;;5118185;27;24520;-59
2021/09/27 12:53:59;;;;;;;5.03;4.72;;;;;;;;;;5114757;27;24413;-59
2021/09/27 12:56:25;;;;;;;4.80;4.50;;;;;;;;;;5107109;27;24413;-60
2021/09/27 12:58:55;;;;;;;4.63;4.33;;;;;;;;;;5125361;27;24421;-59
2021/09/27 13:01:21;;;;;;;5.20;4.80;;;;;;;;;;5125762;27;25121;-59
2021/09/27 13:03:48;;;;;;;5.30;4.90;;;;;;;;;;5123437;27;24568;-62
2021/09/27 13:06:15;;;;;;;4.93;4.63;;;;;;;;;;5125390;27;24428;-60
2021/09/27 13:08:41;;;;;;;5.03;4.72;;;;;;;;;;5125569;27;24432;-59
2021/09/27 13:11:19;;;;;;;4.75;4.45;;;;;;;;;;5108303;27;24417;-60
2021/09/27 13:13:55;;;;;;;4.77;4.47;;;;;;;;;;5126068;27;24412;-59
2021/09/27 13:16:21;;;;;;;5.22;4.82;;;;;;;;;;5117259;27;24498;-58
2021/09/27 13:18:47;;;;;;;5.03;4.63;;;;;;;;;;5126349;27;24424;-63
2021/09/27 13:21:12;;;;;;;4.60;4.30;;;;;;;;;;5124923;27;24508;-59
2021/09/27 13:23:42;;;;;;;5.40;5.00;;;;;;;;;;5122104;27;24465;-59
2021/09/27 13:26:14;;;;;;;4.67;4.37;;;;;;;;;;5122109;27;24461;-59
2021/09/27 13:28:43;;;;;;;4.78;4.47;;;;;;;;;;5117950;27;24414;-59
2021/09/27 13:31:14;;;;;;;4.65;4.35;;;;;;;;;;5120635;27;24522;-58
2021/09/27 13:33:47;;;;;;;4.82;4.43;;;;;;;;;;5122924;27;24432;-59
2021/09/27 13:36:33;;;;;;;4.78;4.47;;;;;;;;;;5127062;27;24495;-59
2021/09/27 13:39:02;;;;;;;4.28;3.97;;;;;;;;;;5115502;27;24440;-59
2021/09/27 13:41:40;;;;;;;4.50;4.20;;;;;;;;;;5126599;27;24413;-59
2021/09/27 13:44:05;;;;;;;3.88;3.67;;;;;;;;;;5127304;27;24424;-60
2021/09/27 13:46:30;;;;;;;4.80;4.50;;;;;;;;;;5126379;27;24401;-60
2021/09/27 13:48:56;;;;;;;4.60;4.30;;;;;;;;;;5122226;27;25347;-59
2021/09/27 13:51:23;;;;;;;4.30;4.00;;;;;;;;;;5125809;27;24851;-60
2021/09/27 13:53:51;;;;;;;4.30;4.00;;;;;;;;;;5125403;27;24409;-59
2021/09/27 13:56:20;;;;;;;4.70;4.40;;;;;;;;;;5119756;27;24551;-60
2021/09/27 13:58:46;;;;;;;4.88;4.57;;;;;;;;;;5112056;27;24409;-60
2021/09/27 14:01:12;;;;;;;4.50;4.20;;;;;;;;;;5125005;27;24425;-60
2021/09/27 14:03:37;;;;;;;6.13;5.73;;;;;;;;;;5125762;27;24815;-60
2021/09/27 14:06:02;;;;;;;6.50;6.10;;;;;;;;;;5126076;27;24515;-61
2021/09/27 14:08:27;;;;;;;5.45;5.10;;;;;;;;;;5125304;27;24465;-62
2021/09/27 14:10:53;;;;;;;5.10;4.80;;;;;;;;;;5117884;27;24442;-61
2021/09/27 14:13:20;;;;;;;5.00;4.60;;;;;;;;;;5117853;27;24412;-60
2021/09/27 14:15:46;;;;;;;4.90;4.60;;;;;;;;;;5116821;27;24458;-60
2021/09/27 14:18:12;;;;;;;5.00;4.60;;;;;;;;;;5117672;27;24517;-61
2021/09/27 14:20:37;;;;;;;5.30;4.90;;;;;;;;;;5117653;27;24505;-60
2021/09/27 14:23:03;;;;;;;5.80;5.40;;;;;;;;;;5120435;27;24421;-61
2021/09/27 14:25:28;;;;;;;5.10;4.80;;;;;;;;;;5126074;27;24420;-61
2021/09/27 14:27:54;;;;;;;5.17;4.87;;;;;;;;;;5120711;27;24451;-61
2021/09/27 14:30:19;;;;;;;5.13;4.83;;;;;;;;;;5120962;27;25002;-60
2021/09/27 14:32:44;;;;;;;5.20;4.90;;;;;;;;;;5122735;27;24428;-60
2021/09/27 14:35:10;;;;;;;5.47;5.07;;;;;;;;;;5122980;27;24511;-60
2021/09/27 14:37:35;;;;;;;4.80;4.50;;;;;;;;;;5118698;27;24432;-60
2021/09/27 14:40:04;;;;;;;5.30;4.90;;;;;;;;;;5119905;27;24409;-59
2021/09/27 14:42:29;;;;;;;5.10;4.80;;;;;;;;;;5123640;27;24992;-59
2021/09/27 14:44:54;;;;;;;5.73;5.33;;;;;;;;;;5122828;27;24440;-59
2021/09/27 14:47:35;;;;;;;5.57;5.18;;;;;;;;;;5124367;27;24421;-60
2021/09/27 14:50:00;;;;;;;5.80;5.40;;;;;;;;;;5118886;28;24424;-60
2021/09/27 14:52:26;;;;;;;6.00;5.60;;;;;;;;;;5116678;28;24428;-60
2021/09/27 14:54:51;;;;;;;5.00;4.70;;;;;;;;;;5119611;28;24993;-60